< < Back
Terminal Aerodrome Forecast


Current Version              Previous Versions:   1  2  3  4  5  6  7  8  9  

Terminal Aerodrome Forecast

664
FTUS42 KJAX 181800 AAA
TAFGNV
TAF AMD
KGNV 181843Z 1819/1918 15010G18KT 6SM SHRA BKN020
     FM182300 18012G20KT 3SM SHRA BR OVC010
     FM190400 20010KT 3SM BR VCSH OVC008=



Latest METAR

016
SAUS70 KWBC 182300 RRH
MTRGNV
METAR KGNV 182253Z 21006KT 10SM FEW009 FEW015 OVC110 21/20 A2993 RMK AO2
SLP132 T02110200


USA.gov is the U.S. government's official web portal to all federal, state and local government web resources and services.